Tortola's Pride — HO-3796 — position and weather

sailwx.info

Track history (hours):
 
Tides and Currents Weather Stations Pressure Air Temp Water Temp Dewpoint Dewpoint Depression Visibility Wind Speed Wind Dir Waves Ship Positions

Tortola's Pride

Last reported at 2016-May-28 18:33 UTC. Time now 2016-May-28 22:04 UTC.
Position N 18°25' W 064°36'.

Length 49 m; draft 2.8 m.

Type: Cargo ship. MMSI: 355921000.

Date/timePositionNaut miles runAvg speedWind from/ knotsBaromVisibWave heightAir tempDewpointWater temp
2016-May-28 18:33N 18°25' W 064°36'9 9.2
2016-May-28 17:33N 18°22' W 064°46'7 7.4
2016-May-28 16:33N 18°18' W 064°52'69 5.8
2016-May-28 04:33N 18°30' W 066°04'3 2.7
2016-May-28 03:34N 18°28' W 066°06'0 0.0
2016-May-28 02:33N 18°28' W 066°06'0 0.0
2016-May-28 01:34N 18°28' W 066°06'0 0.0
2016-May-28 00:34N 18°28' W 066°06'0 0.0
2016-May-27 23:34N 18°28' W 066°06'0 0.0
2016-May-27 22:34N 18°28' W 066°06'0 0.0
2016-May-27 21:33N 18°28' W 066°06'0 0.0
2016-May-27 18:11N 18°28' W 066°06'0 0.0
2016-May-27 17:33N 18°28' W 066°06'0 0.0
2016-May-27 16:34N 18°28' W 066°06'0 0.0
2016-May-27 15:34N 18°28' W 066°06'0 0.0
2016-May-27 14:34N 18°28' W 066°06'0 0.0
2016-May-27 13:34N 18°28' W 066°06'0 0.0
2016-May-27 12:34N 18°28' W 066°06'0 0.0
2016-May-27 11:34N 18°28' W 066°06'72 9.0
2016-May-27 03:33N 18°25' W 064°50'10 9.8
2016-May-27 02:33N 18°23' W 064°40'4 0.5
2016-May-26 17:33N 18°26' W 064°37'0 0.0
2016-May-26 16:33N 18°26' W 064°37'0 0.0
2016-May-26 15:33N 18°26' W 064°37'0 0.0
2016-May-26 14:32N 18°26' W 064°37'2 0.1
2016-May-25 21:33N 18°24' W 064°37'9 9.5
2016-May-25 20:33N 18°21' W 064°47'6 0.6
2016-May-25 11:33N 18°18' W 064°52'10 9.5
2016-May-25 10:33N 18°23' W 064°43'5 0.6
2016-May-25 01:33N 18°22' W 064°38'18 1.0
2016-May-24 08:04N 18°11' W 064°53'3 6.8
2016-May-24 07:33N 18°15' W 064°54'68 2.4
2016-May-23 03:15N 18°29' W 066°04'2 3.6
2016-May-23 02:33N 18°28' W 066°06'0 0.0
2016-May-23 01:33N 18°28' W 066°06'0 0.0
2016-May-23 00:33N 18°28' W 066°06'0 0.0
2016-May-22 23:33N 18°28' W 066°06'0 0.0
2016-May-22 22:33N 18°28' W 066°06'0 0.0
2016-May-22 21:33N 18°28' W 066°06'0 0.0
2016-May-22 20:33N 18°28' W 066°06'0 0.0
2016-May-22 19:33N 18°28' W 066°06'0 0.0
2016-May-22 18:32N 18°28' W 066°06'0 0.0
2016-May-22 17:33N 18°28' W 066°06'0 0.0
2016-May-22 16:32N 18°28' W 066°06'0 0.0
2016-May-22 15:33N 18°28' W 066°06'0 0.0
2016-May-22 14:33N 18°28' W 066°06'0 0.0
2016-May-22 13:33N 18°28' W 066°06'0 0.0
2016-May-22 12:33N 18°28' W 066°06'0 0.0
2016-May-22 11:33N 18°28' W 066°06'2 1.5
2016-May-22 10:33N 18°28' W 066°08'69 9.7
2016-May-22 03:26N 18°26' W 064°55'910.2
2016-May-22 02:33N 18°23' W 064°46'9 9.3
2016-May-22 01:33N 18°25' W 064°37'3 0.3
2016-May-21 16:33N 18°23' W 064°39'9 9.3
2016-May-21 15:33N 18°24' W 064°49'73 9.1
2016-May-21 07:33N 18°29' W 066°06'2 1.7
2016-May-21 06:33N 18°28' W 066°06'0 0.0
2016-May-21 05:33N 18°28' W 066°06'0 0.0
2016-May-21 04:33N 18°28' W 066°06'0 0.0
2016-May-21 03:33N 18°28' W 066°06'0 0.0
2016-May-21 02:32N 18°28' W 066°06'0 0.0
2016-May-21 01:33N 18°28' W 066°06'0 0.0
2016-May-21 00:33N 18°28' W 066°06'0 0.0
2016-May-20 23:33N 18°28' W 066°06'0 0.0
2016-May-20 22:33N 18°28' W 066°06'0 0.0
2016-May-20 21:33N 18°28' W 066°06'0 0.0
2016-May-20 20:32N 18°28' W 066°06'0 0.0
2016-May-20 19:33N 18°28' W 066°06'0 0.0
2016-May-20 18:33N 18°28' W 066°06'0 0.0
2016-May-20 17:33N 18°28' W 066°06'0 0.0
2016-May-20 16:33N 18°28' W 066°06'0 0.0
2016-May-20 15:30N 18°28' W 066°06'0 0.0
2016-May-20 14:33N 18°28' W 066°06'0 0.0
2016-May-20 13:33N 18°28' W 066°06'0 0.0
2016-May-20 12:33N 18°28' W 066°06'1 1.4
2016-May-20 11:33N 18°29' W 066°07'68 9.7
2016-May-20 04:30N 18°26' W 064°55'9 9.9
2016-May-20 03:33N 18°23' W 064°45'9 1.1
2016-May-19 19:32N 18°26' W 064°37'0 0.0
2016-May-19 18:32N 18°26' W 064°37'0 0.0
2016-May-19 16:33N 18°26' W 064°37'0 0.1
2016-May-19 15:34N 18°26' W 064°37'2 0.1
2016-May-18 20:34N 18°24' W 064°38'9 9.0
2016-May-18 19:34N 18°21' W 064°47'  
Track history (hours):
 
Tides and Currents Weather Stations Pressure Air Temp Water Temp Dewpoint Dewpoint Depression Visibility Wind Speed Wind Dir Waves Ship Positions

Tortola's Pride

Last reported at 2016-May-28 18:33 UTC. Time now 2016-May-28 22:04 UTC.
Position N 18°25' W 064°36'.

Length 49 m; draft 2.8 m.

Type: Cargo ship. MMSI: 355921000.

Date/timePositionNaut miles runAvg speedWind from/ knotsBaromVisibWave heightAir tempDewpointWater temp
2016-May-28 18:33N 18°25' W 064°36'9 9.2
2016-May-28 17:33N 18°22' W 064°46'7 7.4
2016-May-28 16:33N 18°18' W 064°52'69 5.8
2016-May-28 04:33N 18°30' W 066°04'3 2.7
2016-May-28 03:34N 18°28' W 066°06'0 0.0
2016-May-28 02:33N 18°28' W 066°06'0 0.0
2016-May-28 01:34N 18°28' W 066°06'0 0.0
2016-May-28 00:34N 18°28' W 066°06'0 0.0
2016-May-27 23:34N 18°28' W 066°06'0 0.0
2016-May-27 22:34N 18°28' W 066°06'0 0.0
2016-May-27 21:33N 18°28' W 066°06'0 0.0
2016-May-27 18:11N 18°28' W 066°06'0 0.0
2016-May-27 17:33N 18°28' W 066°06'0 0.0
2016-May-27 16:34N 18°28' W 066°06'0 0.0
2016-May-27 15:34N 18°28' W 066°06'0 0.0
2016-May-27 14:34N 18°28' W 066°06'0 0.0
2016-May-27 13:34N 18°28' W 066°06'0 0.0
2016-May-27 12:34N 18°28' W 066°06'0 0.0
2016-May-27 11:34N 18°28' W 066°06'72 9.0
2016-May-27 03:33N 18°25' W 064°50'10 9.8
2016-May-27 02:33N 18°23' W 064°40'4 0.5
2016-May-26 17:33N 18°26' W 064°37'0 0.0
2016-May-26 16:33N 18°26' W 064°37'0 0.0
2016-May-26 15:33N 18°26' W 064°37'0 0.0
2016-May-26 14:32N 18°26' W 064°37'2 0.1
2016-May-25 21:33N 18°24' W 064°37'9 9.5
2016-May-25 20:33N 18°21' W 064°47'6 0.6
2016-May-25 11:33N 18°18' W 064°52'10 9.5
2016-May-25 10:33N 18°23' W 064°43'5 0.6
2016-May-25 01:33N 18°22' W 064°38'18 1.0
2016-May-24 08:04N 18°11' W 064°53'3 6.8
2016-May-24 07:33N 18°15' W 064°54'68 2.4
2016-May-23 03:15N 18°29' W 066°04'2 3.6
2016-May-23 02:33N 18°28' W 066°06'0 0.0
2016-May-23 01:33N 18°28' W 066°06'0 0.0
2016-May-23 00:33N 18°28' W 066°06'0 0.0
2016-May-22 23:33N 18°28' W 066°06'0 0.0
2016-May-22 22:33N 18°28' W 066°06'0 0.0
2016-May-22 21:33N 18°28' W 066°06'0 0.0
2016-May-22 20:33N 18°28' W 066°06'0 0.0
2016-May-22 19:33N 18°28' W 066°06'0 0.0
2016-May-22 18:32N 18°28' W 066°06'0 0.0
2016-May-22 17:33N 18°28' W 066°06'0 0.0
2016-May-22 16:32N 18°28' W 066°06'0 0.0
2016-May-22 15:33N 18°28' W 066°06'0 0.0
2016-May-22 14:33N 18°28' W 066°06'0 0.0
2016-May-22 13:33N 18°28' W 066°06'0 0.0
2016-May-22 12:33N 18°28' W 066°06'0 0.0
2016-May-22 11:33N 18°28' W 066°06'2 1.5
2016-May-22 10:33N 18°28' W 066°08'69 9.7
2016-May-22 03:26N 18°26' W 064°55'910.2
2016-May-22 02:33N 18°23' W 064°46'9 9.3
2016-May-22 01:33N 18°25' W 064°37'3 0.3
2016-May-21 16:33N 18°23' W 064°39'9 9.3
2016-May-21 15:33N 18°24' W 064°49'73 9.1
2016-May-21 07:33N 18°29' W 066°06'2 1.7
2016-May-21 06:33N 18°28' W 066°06'0 0.0
2016-May-21 05:33N 18°28' W 066°06'0 0.0
2016-May-21 04:33N 18°28' W 066°06'0 0.0
2016-May-21 03:33N 18°28' W 066°06'0 0.0
2016-May-21 02:32N 18°28' W 066°06'0 0.0
2016-May-21 01:33N 18°28' W 066°06'0 0.0
2016-May-21 00:33N 18°28' W 066°06'0 0.0
2016-May-20 23:33N 18°28' W 066°06'0 0.0
2016-May-20 22:33N 18°28' W 066°06'0 0.0
2016-May-20 21:33N 18°28' W 066°06'0 0.0
2016-May-20 20:32N 18°28' W 066°06'0 0.0
2016-May-20 19:33N 18°28' W 066°06'0 0.0
2016-May-20 18:33N 18°28' W 066°06'0 0.0
2016-May-20 17:33N 18°28' W 066°06'0 0.0
2016-May-20 16:33N 18°28' W 066°06'0 0.0
2016-May-20 15:30N 18°28' W 066°06'0 0.0
2016-May-20 14:33N 18°28' W 066°06'0 0.0
2016-May-20 13:33N 18°28' W 066°06'0 0.0
2016-May-20 12:33N 18°28' W 066°06'1 1.4
2016-May-20 11:33N 18°29' W 066°07'68 9.7
2016-May-20 04:30N 18°26' W 064°55'9 9.9
2016-May-20 03:33N 18°23' W 064°45'9 1.1
2016-May-19 19:32N 18°26' W 064°37'0 0.0
2016-May-19 18:32N 18°26' W 064°37'0 0.0
2016-May-19 16:33N 18°26' W 064°37'0 0.1
2016-May-19 15:34N 18°26' W 064°37'2 0.1
2016-May-18 20:34N 18°24' W 064°38'9 9.0
2016-May-18 19:34N 18°21' W 064°47'  

Dump ship's entire track history